Thunder radar more information blitzortung!


Radar de pluja more information rain snow radar


Visita la nostra xarxa de llocs de meteo:

Template documentation
and downloads

And another site



No particular awareness of the weather is required.    There are no Weather-warnings

Pagina Historial Weather Underground text

Diari Resum Juny 6, 2016 Unitats:  Mètric    Imperial   Tant
« Previous Dia
SegĂźent Dia »
Diari Setmana Mensual Anual Personalitzada
  Maxima: Minima: Media:
Temperatura: -17.8 °C -9.6 °C -5 °C
Punt de rosada: -17.8 °C -14.6 °C -11.7 °C
Humitat: Humidity % 29 % 49 %
Wind Speed: 0 km/h 0 km/h 9.7 km/h
RĂ fegues de vent: 0 km/h - -
Vent:- - SW
Pression baro: 0 hPa 34428.8 hPa -
Precipitacions: 0 mm    
Historical Graphs
 
 
Dades de taula per Juny 6, 2016
Temps Temperatura Punt de rosada Pression baro Vent Wind Speed RĂ fegues de vent Humitat Rainfall Rate (Hourly)
-17.8 °C -17.8 °C 0 hPa Calm     Humidity % 0 mm
00:00 -7.5 °C -10.2 °C 34462.7 hPa Calm     73 % 0 mm
00:05 -7.5 °C -10.2 °C 34428.8 hPa Calm     73 % 0 mm
00:10 -7.6 °C -10.3 °C 34428.8 hPa Calm     73 % 0 mm
00:15 -7.6 °C -10.3 °C 34428.8 hPa SW 6 km/h 6 km/h 73 % 0 mm
00:20 -9.1 °C -11 °C 34462.7 hPa SW 2.6 km/h 5.1 km/h 80 % 0 mm
00:30 -9.3 °C -11.2 °C 34462.7 hPa SW 2.6 km/h 5.1 km/h 80 % 0 mm
00:40 -9.3 °C -11.2 °C 34462.7 hPa SW 5.1 km/h 5.1 km/h 80 % 0 mm
00:50 -9.4 °C -11.2 °C 34462.7 hPa SW 2.6 km/h 5.1 km/h 82 % 0 mm
01:00 -9.4 °C -11.2 °C 34462.7 hPa SW 2.6 km/h 5.1 km/h 82 % 0 mm
01:10 -9.4 °C -11.1 °C 34462.7 hPa Calm     83 % 0 mm
01:20 -9.5 °C -11.2 °C 34462.7 hPa SW 2.6 km/h 5.1 km/h 82 % 0 mm
01:30 -9.6 °C -11.2 °C 34462.7 hPa WSW 2.6 km/h 5.1 km/h 82 % 0 mm
01:40 -9.6 °C -11.2 °C 34462.7 hPa Calm   7.7 km/h 83 % 0 mm
01:50 -9.5 °C -11.1 °C 34462.7 hPa SW 5.1 km/h 5.1 km/h 83 % 0 mm
02:00 -9.3 °C -10.9 °C 34462.7 hPa SW 2.6 km/h 2.6 km/h 83 % 0 mm
02:10 -9.2 °C -10.8 °C 34462.7 hPa Calm   5.1 km/h 83 % 0 mm
02:20 -8.9 °C -10.4 °C 34462.7 hPa Calm     84 % 0 mm
02:30 -8.8 °C -10.5 °C 34462.7 hPa SSE 2.6 km/h 5.1 km/h 82 % 0 mm
02:40 -8.6 °C -10.4 °C 34496.6 hPa ENE 5.1 km/h 7.7 km/h 81 % 0 mm
02:50 -8.4 °C -10.3 °C 34496.6 hPa NE 2.6 km/h 5.1 km/h 80 % 0 mm
03:00 -8.1 °C -10.2 °C 34496.6 hPa ENE 2.6 km/h 5.1 km/h 79 % 0 mm
03:10 -7.9 °C -10.1 °C 34496.6 hPa Calm   7.7 km/h 78 % 0 mm
03:20 -7.6 °C -9.9 °C 34496.6 hPa NE 2.6 km/h 5.1 km/h 77 % 0 mm
03:30 -7.5 °C -9.8 °C 34496.6 hPa East 2.6 km/h 5.1 km/h 77 % 0 mm
03:40 -7.4 °C -9.8 °C 34496.6 hPa SSW 2.6 km/h 7.7 km/h 76 % 0 mm
03:50 -7.1 °C -9.8 °C 34533.8 hPa South 2.6 km/h 5.1 km/h 74 % 0 mm
04:00 -7.1 °C -9.8 °C 34533.8 hPa Calm   7.7 km/h 74 % 0 mm
04:10 -6.4 °C -9.5 °C 34496.6 hPa South 2.6 km/h 5.1 km/h 71 % 0 mm
04:20 -6.2 °C -9.3 °C 34496.6 hPa ESE 2.6 km/h 5.1 km/h 70 % 0 mm
04:30 -6 °C -9.3 °C 34496.6 hPa ESE 7.7 km/h 7.7 km/h 69 % 0 mm
04:40 -5.8 °C -9.4 °C 34496.6 hPa East 5.1 km/h 5.1 km/h 67 % 0 mm
04:50 -5.6 °C -9.3 °C 34496.6 hPa East 5.1 km/h 5.1 km/h 66 % 0 mm
05:00 -5.5 °C -9.6 °C 34496.6 hPa WSW 2.6 km/h 5.1 km/h 63 % 0 mm
05:10 -5.2 °C -9.5 °C 34496.6 hPa SSW 2.6 km/h 12.9 km/h 62 % 0 mm
05:20 -5.1 °C -10.2 °C 34533.8 hPa SSW 7.7 km/h 12.9 km/h 56 % 0 mm
05:30 -4.9 °C -10.5 °C 34533.8 hPa SW 12.9 km/h 12.9 km/h 53 % 0 mm
05:40 -4.6 °C -10.5 °C 34462.7 hPa SW 7.7 km/h 10.3 km/h 51 % 0 mm
05:50 -4.3 °C -10.5 °C 34462.7 hPa SW 7.7 km/h 15.6 km/h 50 % 0 mm
06:00 -4.2 °C -10.3 °C 34462.7 hPa SW 5.1 km/h 18.2 km/h 50 % 0 mm
06:10 -4 °C -10.4 °C 34462.7 hPa SW 5.1 km/h 12.9 km/h 49 % 0 mm
06:20 -3.6 °C -10.2 °C 34462.7 hPa SW 2.6 km/h 10.3 km/h 48 % 0 mm
06:30 -3.6 °C -10.3 °C 34462.7 hPa SW 7.7 km/h 20.8 km/h 47 % 0 mm
06:40 -3.3 °C -10.1 °C 34462.7 hPa SW 7.7 km/h 7.7 km/h 47 % 0 mm
06:50 -2.8 °C -9.8 °C 34462.7 hPa SSW 7.7 km/h 10.3 km/h 46 % 0 mm
07:00 -2.8 °C -9.8 °C 34462.7 hPa SSW 5.1 km/h 10.3 km/h 46 % 0 mm
07:10 -2.6 °C -9.8 °C 34428.8 hPa SW 5.1 km/h 7.7 km/h 45 % 0 mm
07:20 -2.3 °C -9.8 °C 34462.7 hPa SW 2.6 km/h 7.7 km/h 44 % 0 mm
07:30 -2.5 °C -10.1 °C 34462.7 hPa WSW 7.7 km/h 12.9 km/h 43 % 0 mm
07:40 -2.3 °C -10.1 °C 34462.7 hPa SW 7.7 km/h 7.7 km/h 42 % 0 mm
07:50 -1.9 °C -9.8 °C 34462.7 hPa South 12.9 km/h 12.9 km/h 42 % 0 mm
08:00 -1.9 °C -9.8 °C 34462.7 hPa SSW 5.1 km/h 15.6 km/h 42 % 0 mm
08:10 -1.7 °C -9.8 °C 34462.7 hPa SW 15.6 km/h 20.8 km/h 41 % 0 mm
08:20 -1.8 °C -10.1 °C 34462.7 hPa SW 12.9 km/h 15.6 km/h 40 % 0 mm
08:30 -1.7 °C -10.4 °C 34462.7 hPa SW 15.6 km/h 15.6 km/h 38 % 0 mm
08:40 -1.4 °C -10.2 °C 34428.8 hPa SSW 12.9 km/h 23.3 km/h 38 % 0 mm
08:50 -1.5 °C -10.5 °C 34462.7 hPa SSW 7.7 km/h 15.6 km/h 37 % 0 mm
09:00 -1.7 °C -10.9 °C 34462.7 hPa SW 18.2 km/h 28.5 km/h 36 % 0 mm
09:10 -1.7 °C -10.9 °C 34462.7 hPa SW 15.6 km/h 25.9 km/h 36 % 0 mm
09:20 -1.6 °C -11.6 °C 34462.7 hPa SW 7.7 km/h 20.8 km/h 33 % 0 mm
09:40 -1.8 °C -11.7 °C 34462.7 hPa SW 15.6 km/h 20.8 km/h 33 % 0 mm
14:49 -1.4 °C -11.6 °C 34496.6 hPa SW 20.9 km/h 20.9 km/h 32 % 0 mm
14:54 -1.1 °C -11.7 °C 34496.6 hPa WNW 15 km/h 15 km/h 31 % 0 mm
14:59 -1.1 °C -11.9 °C 34496.6 hPa SSW 20.9 km/h 20.9 km/h 30 % 0 mm
15:04 -1.3 °C -11.8 °C 34462.7 hPa SW 20.9 km/h 20.9 km/h 31 % 0 mm
15:09 -1.7 °C -12.1 °C 34462.7 hPa SW 17.4 km/h 17.4 km/h 31 % 0 mm
15:14 -1.9 °C -12.4 °C 34462.7 hPa SW 17.9 km/h 17.9 km/h 31 % 0 mm
15:19 -2 °C -12.4 °C 34462.7 hPa SSW 23.8 km/h 23.8 km/h 31 % 0 mm
15:24 -2 °C -12.4 °C 34462.7 hPa SSW 17.9 km/h 17.9 km/h 31 % 0 mm
15:29 -1.9 °C -12.4 °C 34462.7 hPa SW 20.9 km/h 20.9 km/h 31 % 0 mm
15:34 -1.9 °C -12.3 °C 34462.7 hPa WSW 20.9 km/h 20.9 km/h 31 % 0 mm
15:39 -1.7 °C -12.2 °C 34462.7 hPa South 17.9 km/h 17.9 km/h 31 % 0 mm
15:44 -1.2 °C -11.8 °C 34462.7 hPa SW 11.9 km/h 11.9 km/h 31 % 0 mm
15:49 -1.4 °C -11.9 °C 34496.6 hPa WSW 15 km/h 15 km/h 31 % 0 mm
15:54 -1.6 °C -12.1 °C 34496.6 hPa SW 17.9 km/h 17.9 km/h 31 % 0 mm
15:59 -1.7 °C -12.2 °C 34496.6 hPa SW 38.8 km/h 38.8 km/h 31 % 0 mm
16:04 -1.9 °C -12.3 °C 34462.7 hPa SW 17.9 km/h 17.9 km/h 31 % 0 mm
16:09 -2.1 °C -12.7 °C 34462.7 hPa SSW 15 km/h 15 km/h 30 % 0 mm
16:14 -2.3 °C -12.7 °C 34462.7 hPa WSW 25.9 km/h 25.9 km/h 31 % 0 mm
16:19 -2.3 °C -12.7 °C 34496.6 hPa SSW 15 km/h 15 km/h 31 % 0 mm
16:24 -2.5 °C -13.1 °C 34496.6 hPa SSW 32.8 km/h 32.8 km/h 30 % 0 mm
16:39 -2.9 °C -13.7 °C 34496.6 hPa SSW 17.9 km/h 17.9 km/h 29 % 0 mm
16:49 -3.3 °C -14.1 °C 34496.6 hPa South 28.2 km/h 28.2 km/h 29 % 0 mm
16:54 -3.5 °C -14.3 °C 34496.6 hPa SSW 32.8 km/h 32.8 km/h 29 % 0 mm
16:59 -3.5 °C -14.3 °C 34496.6 hPa SSW 41.7 km/h 41.7 km/h 29 % 0 mm
17:04 -3.7 °C -14.4 °C 34462.7 hPa SSW 32.8 km/h 32.8 km/h 29 % 0 mm
17:09 -3.8 °C -14.5 °C 34462.7 hPa SW 31.4 km/h 31.4 km/h 29 % 0 mm
17:14 -3.9 °C -14.6 °C 34462.7 hPa SW 32.8 km/h 32.8 km/h 29 % 0 mm
17:19 -3.9 °C -14.4 °C 34496.6 hPa SSW 25.1 km/h 25.1 km/h 30 % 0 mm
17:24 -4.1 °C -14.5 °C 34496.6 hPa SW 23.8 km/h 23.8 km/h 30 % 0 mm
17:29 -4.1 °C -14.5 °C 34496.6 hPa WSW 29.8 km/h 29.8 km/h 30 % 0 mm
17:34 -4.1 °C -14.5 °C 34462.7 hPa SSE 17.9 km/h 23.3 km/h 30 % 0 mm
17:44 -4.3 °C -14.1 °C 34462.7 hPa South 20.9 km/h 20.9 km/h 32 % 0 mm
17:49 -4.3 °C -14.1 °C 34462.7 hPa SW 23.8 km/h 23.8 km/h 32 % 0 mm
17:55 -4.3 °C -13.9 °C 34462.7 hPa WSW 20.9 km/h 20.9 km/h 33 % 0 mm
18:00 -4.4 °C -13.5 °C 34462.7 hPa West 32.8 km/h 32.8 km/h 35 % 0 mm
18:05 -4.4 °C -13.3 °C 34462.7 hPa SW 17.9 km/h 17.9 km/h 36 % 0 mm
18:10 -4.4 °C -13.3 °C 34462.7 hPa SW 11.9 km/h 12.2 km/h 36 % 0 mm
18:15 -4.4 °C -13.1 °C 34462.7 hPa SW 5.1 km/h 15.6 km/h 37 % 0 mm
18:20 -4.4 °C -12.8 °C 34462.7 hPa SW 15 km/h 15 km/h 38 % 0 mm
18:25 -4.4 °C -12.8 °C 34462.7 hPa SW 7.7 km/h 12.9 km/h 38 % 0 mm
18:30 -4.4 °C -12.9 °C 34462.7 hPa NNE 6 km/h 6 km/h 38 % 0 mm
18:35 -4.5 °C -12.9 °C 34462.7 hPa Calm   7.7 km/h 38 % 0 mm
18:40 -4.4 °C -12.7 °C 34462.7 hPa WNW 6 km/h 6 km/h 39 % 0 mm
18:45 -4.4 °C -12.7 °C 34462.7 hPa South 2.6 km/h 7.7 km/h 39 % 0 mm
18:50 -4.4 °C -12.7 °C 34462.7 hPa Calm   5.1 km/h 39 % 0 mm
18:55 -4.3 °C -12.6 °C 34462.7 hPa ESE 2.6 km/h 12.9 km/h 39 % 0 mm
19:00 -4.2 °C -12.3 °C 34462.7 hPa SSW 2.6 km/h 7.7 km/h 40 % 0 mm
19:05 -4.2 °C -12.2 °C 34462.7 hPa SW 2.6 km/h 7.7 km/h 40 % 0 mm
19:10 -4.3 °C -12.3 °C 34462.7 hPa WSW 9 km/h 9 km/h 40 % 0 mm
19:15 -4.3 °C -12.3 °C 34462.7 hPa SW 3.1 km/h 3.7 km/h 40 % 0 mm
19:20 -4.2 °C -12.3 °C 34462.7 hPa WSW 9 km/h 9 km/h 40 % 0 mm
19:25 -4.2 °C -12.1 °C 34462.7 hPa WSW 6 km/h 6 km/h 41 % 0 mm
19:30 -4.2 °C -12 °C 34462.7 hPa Calm   5.1 km/h 41 % 0 mm
19:35 -4.1 °C -12 °C 34462.7 hPa SW 3.1 km/h 3.1 km/h 41 % 0 mm
19:40 -4.2 °C -12 °C 34462.7 hPa WSW 9 km/h 9 km/h 41 % 0 mm
19:45 -4.2 °C -12.1 °C 34462.7 hPa SW 5.1 km/h 10.3 km/h 41 % 0 mm
19:50 -4.4 °C -11.8 °C 34496.6 hPa WSW 18.2 km/h 25.9 km/h 43 % 0 mm
19:55 -4.7 °C -12.1 °C 34496.6 hPa WSW 18.2 km/h 33.6 km/h 43 % 0 mm
20:00 -4.9 °C -12.1 °C 34496.6 hPa SW 12.9 km/h 23.3 km/h 44 % 0 mm
20:05 -5 °C -12.2 °C 34533.8 hPa SW 5.1 km/h 20.8 km/h 44 % 0 mm
20:10 -5 °C -12 °C 34533.8 hPa SW 15 km/h 15 km/h 45 % 0 mm
20:15 -5.1 °C -11.8 °C 34533.8 hPa SW 15.6 km/h 25.9 km/h 46 % 0 mm
20:20 -5.2 °C -11.8 °C 34533.8 hPa SW 12.9 km/h 20.8 km/h 47 % 0 mm
20:25 -5.3 °C -11.9 °C 34533.8 hPa SW 11.9 km/h 11.9 km/h 47 % 0 mm
20:30 -5.3 °C -11.9 °C 34533.8 hPa SW 5.1 km/h 12.9 km/h 47 % 0 mm
20:35 -5.3 °C -11.9 °C 34533.8 hPa SW 6.8 km/h 6.8 km/h 47 % 0 mm
20:40 -5.4 °C -11.8 °C 34533.8 hPa WSW 6 km/h   48 % 0 mm
20:45 -5.4 °C -11.8 °C 34533.8 hPa SW 6 km/h 6 km/h 48 % 0 mm
20:50 -5.4 °C -11.8 °C 34496.6 hPa WSW 9 km/h 9 km/h 48 % 0 mm
20:55 -5.5 °C -11.9 °C 34496.6 hPa SW 6 km/h 6.3 km/h 48 % 0 mm
21:00 -5.6 °C -11.8 °C 34496.6 hPa SW 5.1 km/h 7.7 km/h 49 % 0 mm
21:05 -5.6 °C -11.8 °C 34496.6 hPa SW 9 km/h 9 km/h 49 % 0 mm
21:10 -5.7 °C -11.9 °C 34496.6 hPa SW 3.1 km/h 3.1 km/h 49 % 0 mm
21:15 -5.7 °C -11.9 °C 34496.6 hPa SW 9 km/h 9 km/h 49 % 0 mm
21:20 -5.7 °C -11.9 °C 34462.7 hPa SW 6 km/h 6 km/h 49 % 0 mm
21:25 -5.8 °C -11.8 °C 34462.7 hPa SW 11.9 km/h 11.9 km/h 50 % 0 mm
21:30 -5.8 °C -11.8 °C 34462.7 hPa West 6.3 km/h 6.3 km/h 50 % 0 mm
21:35 -5.8 °C -11.8 °C 34462.7 hPa WSW 2.6 km/h 5.1 km/h 50 % 0 mm
21:40 -5.8 °C -11.8 °C 34462.7 hPa West 4.2 km/h 4.2 km/h 50 % 0 mm
21:45 -5.8 °C -11.8 °C 34462.7 hPa WSW 6.3 km/h 6.3 km/h 50 % 0 mm
21:50 -5.8 °C -11.9 °C 34462.7 hPa WSW 6.3 km/h 6.3 km/h 50 % 0 mm
21:55 -5.8 °C -11.9 °C 34462.7 hPa SSW 6 km/h 6 km/h 50 % 0 mm
22:00 -5.9 °C -11.8 °C 34462.7 hPa SW 9 km/h 9 km/h 51 % 0 mm
22:05 -5.9 °C -11.8 °C 34462.7 hPa SW 6.3 km/h 6.8 km/h 51 % 0 mm
22:10 -5.9 °C -11.8 °C 34462.7 hPa SW 6.3 km/h 6.8 km/h 51 % 0 mm
22:15 -5.9 °C -11.8 °C 34462.7 hPa SW 6.3 km/h 6.8 km/h 51 % 0 mm
22:20 -8.1 °C -11.5 °C 34533.8 hPa Calm     67 % 0 mm
22:25 -5.9 °C -11.8 °C 34462.7 hPa SW 11.9 km/h 11.9 km/h 51 % 0 mm
22:30 -5.9 °C -11.8 °C 34462.7 hPa West 4.2 km/h 4.2 km/h 51 % 0 mm
22:35 -5.9 °C -11.8 °C 34462.7 hPa West 3.1 km/h 3.7 km/h 51 % 0 mm
22:40 -5.9 °C -11.8 °C 34462.7 hPa West 3.1 km/h 3.7 km/h 51 % 0 mm
22:45 -6 °C -11.8 °C 34462.7 hPa West 3.1 km/h 3.7 km/h 51 % 0 mm
22:50 -6.1 °C -11.9 °C 34496.6 hPa Calm     51 % 0 mm
22:55 -6.2 °C -11.8 °C 34496.6 hPa WSW 3.1 km/h   52 % 0 mm
23:00 -6.2 °C -11.9 °C 34496.6 hPa WSW 3.1 km/h   52 % 0 mm
23:05 -6.3 °C -12 °C 34496.6 hPa Calm   5.1 km/h 52 % 0 mm
23:10 -6.4 °C -12.1 °C 34496.6 hPa SW 3.1 km/h   52 % 0 mm
23:15 -6.5 °C -12 °C 34496.6 hPa SW 3.1 km/h   53 % 0 mm
23:20 -6.5 °C -12 °C 34496.6 hPa SW 3.1 km/h   53 % 0 mm
23:25 -6.6 °C -12.1 °C 34496.6 hPa SW 3.1 km/h   53 % 0 mm
23:30 -6.6 °C -12.1 °C 34496.6 hPa SW 3.1 km/h   53 % 0 mm
23:40 -6.6 °C -12.1 °C 34496.6 hPa SW 3.1 km/h   53 % 0 mm
23:45 -6.8 °C -12.2 °C 34496.6 hPa WSW 8 km/h 8 km/h 54 % 0 mm
23:50 -7.1 °C -12.2 °C 34496.6 hPa SW 9 km/h 9 km/h 55 % 0 mm
23:55 -7.1 °C -12.3 °C 34496.6 hPa WSW 6 km/h 6 km/h 55 % 0 mm
Meteo Sesrovires
Elogis d' Weather Underground - 2 mb

Guio original per  Jim McMurry - jmcmurry@mwt.net Adaptat per a la plantilla per  Wim van der Kuil - Leuven-Template.eu

Trobareu la nostra informacio del temps tambe a:

Weather Underground

AWEKAS